Summer Point, Vermont
Current Conditions -  °F | °C
As of 1:15 AM on Thursday 29 Jan 2015 (Local Time) from K6B0 Reporting Station
Clear Clear  
Wind Chill: -18°   Ceiling: Unl
Heat Index: -18°   Visibility: 10mi
Dew Point: -20°   Wind: 0mph
Humidity: 82%   Direction: NA
Pressure: 30.29"   Gusts: NA
Location:  44.0804°N, 73.3324°W
Report Text: K6B0 290615Z AUTO 00000KT 10SM CLR M18/M20 A3029 RMK AO2 T11771201
Loading
Personal Weather Stations






























Interactive Weather Map New forecast layout! Learn more

10-Day Weather Forecast

Advertisements
Track Severe Weather on mobile